KTPH

Details ICAO KTPH
Name TONOPAH
Region United States
Timezone America/Los_Angeles (UTC-8.0)
Plans Departing 11
Arriving 9
Stats Elevation 5,426 ft / 1,654 m (AMSL)
Location 38.060522° -117.086804°
Runways 2
Magnetic Variation 12.514° E
Sunrise 2017-12-15 14:58:58 UTC / 2017-12-15 06:58:58 Local
Sunset 2017-12-16 00:31:08 UTC / 2017-12-15 16:31:08 Local
Advertisement - Login to hide

Runways

ID Width Length Bearing (true) Bearing (mag) Surface Threshold Offset Overrun Length
11 50 ft / 15 m 5,460 ft / 1,664 m 125.09° 112.58° Asphalt 0 ft / 0 m 0 ft / 0 m
15 80 ft / 24 m 7,070 ft / 2,155 m 165.03° 152.52° Asphalt 0 ft / 0 m 0 ft / 0 m
29 50 ft / 15 m 5,460 ft / 1,664 m 305.10° 292.59° Asphalt 0 ft / 0 m 0 ft / 0 m
33 80 ft / 24 m 7,070 ft / 2,155 m 345.03° 332.52° Asphalt 0 ft / 0 m 1,655 ft / 504 m

Map

Weather


0- 5 10 15 20 25 30 35+ Temperature / ° C

Clouds and Precipitation
Forecast for 2017-12-16 00:00 UTC. Updated an hour ago

Ground ~20,000 ft ~40,000 ft Winds

METAR

KTPH 152356Z AUTO 10SM CLR 10/M13 A3009 RMK AO2 SLP191 T01001128 10122 20033 56030

TAF

TAF KTPH 152320Z 1600/1624 VRB06KT P6SM BKN250 FM160200 33008KT P6SM OVC150 FM161400 34015G25KT P6SM SCT050 OVC090 FM161800 34030G45KT P6SM BKN050

Frequencies

Recorded 118.87 MHz ASOS
Unicom 123.00 MHz CTAF/UNICOM
Warning: Do not use this data for real-world aviation or navigation. No guarantee of current accuracy is given.